• Join FlightAware (Why Join?)
  • Login
  • US Flag 
06:13AM EDT


 

Airport Tracker/Info


-or-


 

Live Flight TrackerFlight Track Log ✈ SKW4551 ✈ 15-May-2013 ✈ KRDM - KSLC

Flight Track Log - Related Links

Times and Time Zones

All times are in EDT time to prevent confusion due to time zone crossing. See the SKW4551 flight status page for this flight to view local times or setup timezone preferences in your user account.

Time Position Orientation Groundspeed Altitude Reporting Facility
EDT Latitude Longitude Course Direction KTS MPH feet Rate Location/Type
09:22AM 44.2494 -121.0319 112° Southeast 201 231 6,400  Level Seattle Center
09:23AM 44.2308 -120.9375 105° East 240 276 8,400 1,980 Climbing Seattle Center
09:24AM 44.0862 -120.6284 113° Southeast  Level Estimated
09:25AM 44.0557 -120.4922 107° East  Level FlightAware Approximate
09:25AM 44.1861 -120.7100 105° East 317 365 12,500  Level Seattle Center
09:26AM 44.0131 -120.3626 113° Southeast  Level Estimated
09:26AM 44.1597 -120.5794 106° East 344 396 14,400  Level Seattle Center
09:27AM 43.9746 -120.2305 112° Southeast  Level FlightAware Approximate
09:27AM 44.1344 -120.4447 105° East 357 411 16,400  Level Seattle Center
09:28AM 44.1053 -120.2989 106° East 368 423 18,200 1,620 Climbing Seattle Center
09:29AM 44.0781 -120.1611 105° East 372 428 19,700 1,380 Climbing Seattle Center
09:30AM 44.0481 -120.0206 106° East 381 438 21,000 1,080 Climbing Seattle Center
09:31AM 44.0169 -119.8747 106° East 394 453 21,900 840 Climbing Seattle Center
09:32AM 43.9856 -119.7256 106° East 405 466 22,800 840 Climbing Seattle Center
09:33AM 43.9528 -119.5703 106° East 419 482 23,700 840 Climbing Seattle Center
09:34AM 43.9131 -119.3842 106° East 424 488 24,600 780 Climbing Seattle Center
09:35AM 43.8794 -119.2261 106° East 427 491 25,300 900 Climbing Seattle Center
09:36AM 43.8450 -119.0658 107° East 434 499 26,500 960 Climbing Seattle Center
09:37AM 43.8083 -118.9069 108° East 430 495 27,300 720 Climbing Seattle Center
09:38AM 43.7694 -118.7508 109° East 433 498 28,000 660 Climbing Salt Lake Center
09:39AM 43.7294 -118.5928 109° East 437 503 28,700 660 Climbing Salt Lake Center
09:40AM 43.6886 -118.4336 109° East 440 506 29,400 600 Climbing Salt Lake Center
09:41AM 43.6447 -118.2686 110° East 452 520 30,000 600 Climbing Salt Lake Center
09:42AM 43.5972 -118.0894 110° East 443 510 30,700 600 Climbing Salt Lake Center
09:43AM 43.5583 -117.9367 109° East 442 509 31,300 540 Climbing Salt Lake Center
09:44AM 43.5186 -117.7825 110° East 444 511 31,800 540 Climbing Salt Lake Center
09:45AM 43.4714 -117.6047 110° East 443 510 32,500 540 Climbing Salt Lake Center
09:46AM 43.4311 -117.4533 110° East 442 509 33,000 240 Climbing Salt Lake Center
09:47AM 43.3842 -117.2756 110° East 445 512 33,000  Level Salt Lake Center
09:48AM 43.3422 -117.1194 110° East 454 522 33,000  Level Salt Lake Center
09:49AM 43.2992 -116.9608 110° East 460 529 33,000  Level Salt Lake Center
09:50AM 43.2475 -116.7711 110° East 477 549 33,000  Level Salt Lake Center
09:51AM 43.2033 -116.6106 111° Southeast 473 544 33,000  Level Salt Lake Center
09:52AM 43.1514 -116.4225 111° Southeast 476 548 33,000  Level Salt Lake Center
09:53AM 43.1064 -116.2611 111° Southeast 475 547 33,000  Level Salt Lake Center
09:54AM 43.0614 -116.1003 111° Southeast 473 544 33,000  Level Salt Lake Center
09:55AM 43.0086 -115.9147 111° Southeast 471 542 33,000  Level Salt Lake Center
09:56AM 42.9628 -115.7511 111° Southeast 481 554 33,000  Level Salt Lake Center
09:57AM 42.9100 -115.5661 111° Southeast 471 542 33,000  Level Salt Lake Center
09:58AM 42.8644 -115.4072 111° Southeast 472 543 33,000  Level Salt Lake Center
09:59AM 42.8189 -115.2489 111° Southeast 470 541 33,000  Level Salt Lake Center
10:00AM 42.7647 -115.0639 112° Southeast 472 543 33,000 -240 Level Salt Lake Center
10:01AM 42.7178 -114.9028 112° Southeast 478 550 32,600 -360 Descending Salt Lake Center
10:02AM 42.6617 -114.7150 112° Southeast 479 551 32,300 -300 Descending Salt Lake Center
10:03AM 42.6142 -114.5539 112° Southeast 485 558 32,000 -360 Descending Salt Lake Center
10:04AM 42.5628 -114.3828 112° Southeast 491 565 31,600 -480 Descending Salt Lake Center
10:05AM 42.5117 -114.2128 112° Southeast 490 564 31,100 -600 Descending Salt Lake Center
10:06AM 42.4614 -114.0428 112° Southeast 486 559 30,500 -540 Descending Salt Lake Center
10:08AM 42.4100 -113.8781 113° Southeast 477 549 30,000 -540 Descending Salt Lake Center
10:09AM 42.3492 -113.6839 113° Southeast 468 539 29,400 -540 Descending Salt Lake Center
10:10AM 42.2997 -113.5222 112° Southeast 468 539 29,000 -240 Descending Salt Lake Center
10:11AM 42.2214 -113.3897 129° Southeast 455 524 29,000  Level Salt Lake Center
10:12AM 42.1319 -113.2697 135° Southeast 455 524 29,000  Level Salt Lake Center
10:13AM 42.0406 -113.1503 136° Southeast 458 527 29,000 -840 Level Salt Lake Center
10:14AM 41.9517 -113.0322 135° Southeast 453 521 27,400 -2,280 Descending Salt Lake Center
10:15AM 41.8608 -112.9150 136° Southeast 454 522 24,400 -2,940 Descending Salt Lake Center
10:16AM 41.7711 -112.8000 136° Southeast 451 519 21,400 -3,300 Descending Salt Lake Center
10:17AM 41.6708 -112.6725 136° Southeast 421 484 17,700 -3,120 Descending Salt Lake Center
10:17AM 41.6194 -112.5939 131° Southeast 402 463 16,000 -1,680 Descending Salt Lake Center
10:18AM 41.5942 -112.5708 146° Southeast 390 449 16,000 -300 Level Salt Lake Center
10:19AM 41.5281 -112.4844 136° Southeast 331 381 15,600 -840 Descending Salt Lake Center
10:20AM 41.4600 -112.4100 141° Southeast 319 367 14,300 -1,320 Descending Salt Lake Center
10:21AM 41.3936 -112.3322 139° Southeast 316 364 13,000 -1,380 Descending Salt Lake Center
10:22AM 41.3261 -112.2494 137° Southeast 308 354 11,600 -1,260 Descending Salt Lake Center
10:23AM 41.2683 -112.1869 141° Southeast 301 346 10,400 -780 Descending Salt Lake Center
10:24AM 41.2028 -112.1081 138° Southeast 261 300 10,000 -540 Descending Salt Lake Center
10:25AM 41.1514 -112.0486 139° Southeast 248 285 9,300 -540 Descending Salt Lake Center
10:26AM 41.0881 -112.0311 168° South 222 255 9,000 -300 Descending Salt Lake Center
10:27AM 41.0333 -112.0269 177° South 197 227 8,800 -600 Descending Salt Lake Center
10:28AM 40.9803 -112.0194 174° South 192 221 7,900 -1,080 Descending Salt Lake Center
10:29AM 40.9275 -112.0147 176° South 191 220 6,700 -1,200 Descending Salt Lake Center